En poursuivant votre navigation sur ce site, vous acceptez l'utilisation de cookies pour vous proposer des contenus et services adaptés. Mentions légales.
  

11/10/2021 Mise à jour des tableaux d'analyses décadaires : rubrique climatologie
03/10/2021 Mise en ligne de la synthèse climatologique de Septembre 2021 : cliquez ICI

01/10/2021 Mise à jour des tableaux d'analyses décadaires, mensuelles et annuelles : rubrique climatologie   

NOAA COMPLET DU MOIS

Si l'entête du tableau ne s'affiche pas correctement, => actualisez la page (F5 avec Internet Explorer, Chrome...).
Utilisez l'ascenseur sur la droite des lignes du tableau pour faire défiler verticalement les jours du mois.

TABLEAU DES DONNEES COMPLETES NOAA de SEPTEMBRE 2021

DATE TEMPERATURE
sous abri
TEMPARATURE 
au sol
VENT  et  Indice de Refroidissement Eolien  PRECIPITATIONS (en mm/m2)
et Intensité
PRESSION ATMOSPHERIQUE (en hPa) HUMIDITE de l'AIR RADIATIONS SOLAIRES (en W/m2)
Mini Moy. Maxi Mini Moy. Maxi Moyen Rafale I.R.E.
Minii
Précip. jour Cumul mois Intensité Maxi Mini Moy. Maxi Mini Moy. Maxi Pic maxi du jour Total jour
01/09/21 9.7° 16.9° 24.9° 8.9° 17° 27.8° 3.2km/h dir O 20.9km/h dir O 9.7° 0 0 1019.2 1020.5 1022.3 58% 82% 94% 796 65 337
02/09/21 10.8° 19.2° 28.1° 10° 19.4° 31.1° 1.4km/h dir SE 14.5km/h dir ENE 10.8° 0.2 0.2 1017.3 1019.5 1020.9 53% 79.5% 94% 795 68 337
03/09/21 17° 20.7° 26.6° 15.6° 20.8° 30.6° 2.7km/h dir ESE 16.1km/h dir SO 17.1° 1.6 1.8 7mm/h 1015 1017.2 1018.7 55% 80.4% 93% 951 43 856
04/09/21 16.6° 20.9° 27.2° 15° 21.5° 30° 3.1km/h dir ENE 19.3km/h dir O 16.7° 0.4 2.2 1013.1 1014.7 1015.9 58% 79.8% 94% 851 68 675
05/09/21 13.1° 20.4° 28.6° 12.2° 20.4° 31.7° 2.6km/h dir ENE 16.1km/h dir O 13.1° 0 2.2 1015.3 1016.9 1018.3 49% 77.8% 94% 773 70 859
06/09/21 12.9° 20.4° 28.8° 11.7° 20.3° 31.7° 2.3km/h dir ENE 14.5km/h dir NE 12.9° 0 2.2 1018.3 1019.7 1021.2 46% 77.6% 94% 772 70 572
07/09/21 13.8° 21.7° 30.3° 12.2° 21.3° 32.8° 3.5km/h dir SE 24.1km/h dir SSE 13.8° 0 2.2 1015.4 1018.5 1020.7 50% 76.4% 94% 793 68 855
08/09/21 18.4° 23.8° 30° 17.2° 23.2° 31.7° 10.6km/h dir SE 49.9km/h dir SE 18.4° 0 2.2 1010.5 1013.1 1015.7 38% 60.3% 81% 740 65 633
09/09/21 17.9° 21.1° 25.6° 17.2° 20.5° 29.4° 7.2km/h dir SE 43.5km/h dir SSE 17.9° 0.4 2.6 1012.1 1013.2 1014.7 53% 69.1% 91% 988 27 931
10/09/21 15.4° 18.7° 22.8° 14.4° 18.9° 26.7° 2.6km/h dir SE 17.7km/h dir SSE 15.4° 2.8 5.4 2.2mm/h 1013.3 1015.6 1017.6 73% 87.2% 93% 870 29 893
11/09/21 14.9° 19.1° 25° 12.8° 19.8° 30.6° 3.5km/h dir NNE 17.7km/h dir NE 15.1° 1.2 6.6 16.6mm/h 1016.8 1018.1 1019.8 58% 82.7% 94% 926 62 981
12/09/21 11.5° 17.5° 26.1° 10.6° 18° 30° 2.6km/h dir ENE 16.1km/h dir NNE 11.5° 0.2 6.8 1014.8 1016.5 1018.2 52% 82.3% 94% 761 60 943
13/09/21 11.7° 20.3° 29.5° 11.1° 20.4° 32.2° 5.1km/h dir SE 27.4km/h dir SE 11.7° 0 6.8 1012.6 1014.5 1016.2 44% 73.4% 94% 775 64 440
14/09/21 21° 23.1° 27.4° 20° 22.7° 29.4° 11.1km/h dir SE 45.1km/h dir S 20.4° 0.2 7 1011.8 1013 1013.8 58% 74.2% 86% 860 32 503
15/09/21 17.3° 21.1° 26.4° 17.2° 21.7° 30.6° 4.5km/h dir ESE 29km/h dir SSE 17.3° 5.6 12.6 22.2mm/h 1012 1013.1 1014.7 63% 84.5% 94% 984 37 257
16/09/21 17.3° 19.6° 24.3° 17.2° 20.7° 29.4° 3.1km/h dir O 19.3km/h dir N 17.3° 0.4 13 1014 1015 1016.2 71% 89.6% 94% 977 32 704
17/09/21 14.2° 17.8° 23.6° 12.8° 18.9° 28.3° 3.7km/h dir OSO 17.7km/h dir OSO 14.2° 0.2 13.2 1012.1 1014 1016.1 63% 85.1% 95% 838 56 041
18/09/21 11.3° 17.2° 24.2° 10.6° 18° 28.3° 2.6km/h dir ENE 16.1km/h dir OSO 11.3° 0.2 13.4 1010.4 1012.8 1014.6 60% 84% 94% 779 58 315
19/09/21 13.4° 15° 18.7° 14.4° 16.6° 24.4° 4.3km/h dir S 61.2km/h dir SSE 13.2° 16 29.4 31.6mm/h 1010.8 1014.7 1016.6 69% 87.9% 94% 905 36 461
20/09/21 13.3° 14.4° 15.8° 14.4° 15.9° 18.3° 2.3km/h dir SE 16.1km/h dir SE 13.1° 21.2 50.6 22.2mm/h 1016 1017.7 1021.2 92% 93.8% 95% 190 12 598
21/09/21 12.9° 15.6° 20.1° 12.8° 17.3° 26.1° 5.1km/h dir O 24.1km/h dir O 13.1° 0 50.6 1021.2 1023.9 1025.9 75% 88.6% 95% 877 36 846
22/09/21 10° 13° 18.4° 9.4° 14.2° 22.2° 2.4km/h dir O 16.1km/h dir OSO 10° 0.2 50.8 1021.9 1024.4 1026 77% 91% 95% 663 29 172
23/09/21 8.4° 15.2° 23.3° 9.4° 16.4° 27.2° 1.9km/h dir E 16.1km/h dir S 8.5° 0.2 51 1019.4 1021.2 1022.7 64% 85.1% 95% 710 58 755
24/09/21 9.8° 16.6° 25.9° 10° 17.5° 28.9° 1.6km/h dir ENE 12.9km/h dir N 9.8° 0.2 51.2 1016.1 1018.3 1019.9 55% 83.7% 95% 696 58 652
25/09/21 12° 18.9° 26.8° 12.2° 19.5° 28.9° 7.7km/h dir SE 41.8km/h dir SE 12° 0.2 51.4 1013.5 1015.4 1016.7 53% 79.4% 95% 714 47 356
26/09/21 14.5° 18.5° 24.5° 13.9° 19.3° 28.3° 3.4km/h dir ESE 19.3km/h dir SE 14.6° 10.2 61.6 41.4mm/h 1014.7 1017.3 1018.9 62% 86.4% 94% 726 40 349
27/09/21 12.3° 17.2° 24.5° 12.2° 18.7° 28.3° 3.5km/h dir SE 25.7km/h dir OSO 12.3° 0.2 61.8 1017.4 1019 1024.2 62% 85.1% 95% 789 41 987
28/09/21 9.4° 14.7° 20.5° 9.4° 15.7° 24.4° 3.2km/h dir OSO 20.9km/h dir N 9.4° 0.2 62 1018.9 1021.4 1024.2 60% 84.5% 94% 868 44 312
29/09/21 9.8° 15.2° 20° 9.4° 16.2° 25° 2.4km/h dir E 19.3km/h dir SO 9.9° 1.8 63.8 39mm/h 1020.3 1023.4 1028.1 69% 86% 94% 733 31 907
30/09/21 5.4° 11.4° 18.5° 5.6° 12.4° 22.8° 4km/h dir O 25.7km/h dir NNE 5.4° 0.2 64 1024.4 1026.7 1028.5 55% 81.2% 95% 703 57 046

RETOUR ACCUEIL


Date de création : 01/10/2021 : 21:59
Catégorie : ANNEE 2020 - MOIS PASSES - SEPTEMBRE 2021
Page lue 36 fois


Réactions à cet article


Personne n'a encore laissé de commentaire.
Soyez donc le premier !